Time;durP1;ratioP1;P1;durP2;ratioP2;P2;SDS_P1;SDS_P2;PMS_P1;PMS_P2;Temp;Humidity;BMP_temperature;BMP_pressure;BME280_temperature;BME280_humidity;BME280_pressure;Samples;Min_cycle;Max_cycle;Signal;HPM_P1;HPM_P2
2023/10/29 00:01:30;;;;;;;1.90;0.60;;;;;;;11.78;100.00;98956.16;5025089;28;20045;-92
2023/10/29 00:03:59;;;;;;;2.73;0.67;;;;;;;11.76;100.00;98952.88;5022413;28;20481;-92
2023/10/29 00:06:24;;;;;;;2.22;0.55;;;;;;;11.77;100.00;98946.34;5036315;28;20083;-92
2023/10/29 00:08:50;;;;;;;3.27;0.63;;;;;;;11.78;100.00;98956.16;5006807;28;20029;-93
2023/10/29 00:11:18;;;;;;;2.83;0.60;;;;;;;11.77;100.00;98941.72;5045545;28;20087;-93
2023/10/29 00:13:43;;;;;;;2.47;0.98;;;;;;;11.76;100.00;98937.38;5036680;28;20382;-93
2023/10/29 00:16:11;;;;;;;4.80;0.90;;;;;;;11.81;100.00;98927.59;5054544;28;20029;-93
2023/10/29 00:18:36;;;;;;;1.88;0.55;;;;;;;11.80;100.00;98923.28;5035789;28;20032;-93
2023/10/29 00:21:03;;;;;;;4.73;0.90;;;;;;;11.73;100.00;98904.50;5036498;28;20056;-93
2023/10/29 00:23:31;;;;;;;5.10;0.88;;;;;;;11.69;100.00;98896.09;5039106;28;20082;-93
2023/10/29 00:25:57;;;;;;;2.42;0.60;;;;;;;11.70;100.00;98872.44;5042577;28;20029;-93
2023/10/29 00:28:23;;;;;;;3.30;0.70;;;;;;;11.68;100.00;98872.72;5035602;28;20044;-92
2023/10/29 00:30:54;;;;;;;2.43;0.60;;;;;;;11.63;100.00;98864.56;5035935;28;20037;-93
2023/10/29 00:33:20;;;;;;;2.08;0.63;;;;;;;11.64;100.00;98868.91;5020469;28;20036;-93
2023/10/29 00:35:46;;;;;;;4.20;0.60;;;;;;;11.62;100.00;98857.50;5041180;28;20037;-93
2023/10/29 00:38:13;;;;;;;3.50;0.60;;;;;;;11.61;100.00;98845.00;5052088;28;20477;-92
2023/10/29 00:40:39;;;;;;;1.70;0.60;;;;;;;11.63;100.00;98890.91;5021736;28;20295;-93
2023/10/29 00:43:13;;;;;;;5.80;0.80;;;;;;;11.69;100.00;98917.00;5036166;28;20029;-92
2023/10/29 00:45:39;;;;;;;2.72;0.55;;;;;;;11.70;100.00;98892.28;5053594;28;20044;-92
2023/10/29 00:48:08;;;;;;;2.05;0.70;;;;;;;11.73;100.00;98890.94;5020276;28;20037;-92
2023/10/29 00:50:34;;;;;;;5.43;0.60;;;;;;;11.82;100.00;98883.06;5002238;28;20401;-92
2023/10/29 00:53:02;;;;;;;3.03;0.82;;;;;;;11.93;100.00;98901.84;5027748;28;20032;-92
2023/10/29 00:55:31;;;;;;;1.70;0.90;;;;;;;11.98;100.00;98881.19;5002160;28;20025;-93
2023/10/29 00:58:03;;;;;;;1.35;0.70;;;;;;;11.90;100.00;98874.38;5036146;28;20021;-92
2023/10/29 01:00:31;;;;;;;2.60;0.82;;;;;;;11.84;100.00;98868.13;5035946;28;20035;-92
2023/10/29 01:02:57;;;;;;;4.80;0.80;;;;;;;11.83;100.00;98861.03;5051868;28;20037;-85
2023/10/29 01:05:22;;;;;;;1.53;0.80;;;;;;;11.75;100.00;98848.81;5035688;28;20021;-86
2023/10/29 01:07:51;;;;;;;3.38;0.77;;;;;;;11.87;100.00;98866.72;5035181;28;20061;-85
2023/10/29 01:10:16;;;;;;;3.40;0.90;;;;;;;11.95;100.00;98851.84;5053272;28;20031;-86
2023/10/29 01:12:44;;;;;;;2.00;0.68;;;;;;;11.91;100.00;98841.50;5035489;28;20033;-85
2023/10/29 01:15:09;;;;;;;3.80;0.83;;;;;;;11.80;100.00;98839.06;5035609;28;20025;-86
2023/10/29 01:17:42;;;;;;;2.25;0.60;;;;;;;11.86;100.00;98838.75;5035693;28;20369;-85
2023/10/29 01:20:12;;;;;;;1.63;0.60;;;;;;;11.80;100.00;98820.03;5020288;28;20059;-85
2023/10/29 01:22:37;;;;;;;3.43;0.70;;;;;;;11.90;100.00;98837.13;5035588;28;20046;-85
2023/10/29 01:25:07;;;;;;;1.85;0.98;;;;;;;11.81;100.00;98840.66;5035881;28;20037;-85
2023/10/29 01:27:35;;;;;;;3.05;0.65;;;;;;;11.70;100.00;98837.94;5035372;28;20492;-85
2023/10/29 01:30:02;;;;;;;2.20;0.60;;;;;;;11.73;100.00;98831.97;5035262;28;20472;-85
2023/10/29 01:32:27;;;;;;;1.70;0.68;;;;;;;11.72;100.00;98834.94;5036011;28;20033;-85
2023/10/29 01:34:53;;;;;;;2.43;0.60;;;;;;;11.68;100.00;98828.47;5052895;28;20382;-85
2023/10/29 01:37:20;;;;;;;2.30;0.60;;;;;;;11.72;100.00;98807.78;5035261;28;20094;-86
2023/10/29 01:39:46;;;;;;;1.17;0.50;;;;;;;11.75;100.00;98816.22;5020775;28;20065;-85
2023/10/29 01:42:11;;;;;;;1.85;0.70;;;;;;;11.82;100.00;98815.94;5038497;28;20127;-85
2023/10/29 01:44:42;;;;;;;3.60;0.50;;;;;;;11.69;100.00;98806.44;5056399;28;20034;-85
2023/10/29 01:47:13;;;;;;;2.45;0.50;;;;;;;11.77;100.00;98805.09;5039135;28;20040;-86
2023/10/29 01:49:39;;;;;;;3.13;0.57;;;;;;;11.66;100.00;98798.84;5039763;28;20037;-86
2023/10/29 01:52:07;;;;;;;3.20;0.90;;;;;;;11.67;100.00;98800.47;5038354;28;20036;-86
2023/10/29 01:54:35;;;;;;;1.63;0.70;;;;;;;11.67;100.00;98815.94;5038651;28;20385;-86
2023/10/29 01:57:00;;;;;;;1.92;0.50;;;;;;;11.64;100.00;98816.50;5022414;28;20029;-85
2023/10/29 01:59:35;;;;;;;2.40;0.50;;;;;;;11.51;100.00;98807.78;5056248;28;20108;-86
2023/10/29 02:02:04;;;;;;;2.50;0.70;;;;;;;11.50;100.00;98817.03;5038472;28;20025;-86
2023/10/29 02:04:32;;;;;;;3.67;0.60;;;;;;;11.48;100.00;98818.41;5038670;28;20025;-86
2023/10/29 02:06:57;;;;;;;2.25;0.60;;;;;;;11.49;100.00;98814.59;5038140;28;20573;-84
2023/10/29 02:09:23;;;;;;;4.57;0.70;;;;;;;11.56;100.00;98834.16;5035840;28;20051;-86
2023/10/29 02:11:51;;;;;;;3.65;0.50;;;;;;;11.60;100.00;98827.06;5055864;28;20102;-85
2023/10/29 02:14:20;;;;;;;4.15;0.68;;;;;;;11.63;100.00;98826.53;5051990;28;20037;-86
2023/10/29 02:16:46;;;;;;;3.83;1.10;;;;;;;11.63;100.00;98814.88;5049111;28;20469;-85
2023/10/29 02:19:12;;;;;;;2.45;1.02;;;;;;;11.66;100.00;98820.59;5056036;28;20453;-84
2023/10/29 02:21:40;;;;;;;4.10;0.70;;;;;;;11.59;100.00;98801.03;5038122;28;20114;-85
2023/10/29 02:24:08;;;;;;;2.90;0.70;;;;;;;11.64;100.00;98809.16;5038710;28;20497;-85
2023/10/29 02:26:33;;;;;;;3.72;0.68;;;;;;;11.64;100.00;98802.91;5037967;28;20044;-85
2023/10/29 02:28:59;;;;;;;3.37;0.60;;;;;;;11.66;100.00;98815.16;5038287;28;20025;-85
2023/10/29 02:31:27;;;;;;;1.60;0.90;;;;;;;11.63;100.00;98817.56;5037791;28;20443;-85
2023/10/29 02:33:55;;;;;;;2.92;0.60;;;;;;;11.59;100.00;98818.13;5038151;28;20119;-85
2023/10/29 02:36:21;;;;;;;4.60;0.80;;;;;;;11.69;100.00;98820.03;5038530;28;20094;-86
2023/10/29 02:38:46;;;;;;;3.35;0.70;;;;;;;11.72;100.00;98807.78;5047276;28;20458;-85
2023/10/29 02:41:22;;;;;;;2.00;0.87;;;;;;;11.73;100.00;98812.94;5051070;28;20531;-85
2023/10/29 02:43:48;;;;;;;2.08;0.60;;;;;;;11.75;100.00;98810.78;5045648;28;20043;-85
2023/10/29 02:46:20;;;;;;;1.33;0.50;;;;;;;11.97;100.00;98800.72;5037564;28;20370;-85
2023/10/29 02:48:46;;;;;;;3.55;0.55;;;;;;;12.02;100.00;98800.75;5055301;28;20028;-85
2023/10/29 02:51:12;;;;;;;2.23;0.50;;;;;;;12.10;100.00;98820.00;5019957;28;20025;-85
2023/10/29 02:53:41;;;;;;;3.10;0.60;;;;;;;12.20;100.00;98796.63;5055132;28;20035;-86
2023/10/29 02:56:13;;;;;;;1.63;0.60;;;;;;;12.34;100.00;98811.25;5037134;28;20029;-85
2023/10/29 02:58:38;;;;;;;1.47;0.50;;;;;;;12.46;100.00;98811.75;5055085;28;20116;-85
2023/10/29 03:01:08;;;;;;;1.58;0.52;;;;;;;12.51;100.00;98813.63;5036933;28;20056;-85
2023/10/29 03:03:38;;;;;;;2.03;0.90;;;;;;;12.72;100.00;98806.19;5055725;28;20033;-86
2023/10/29 03:06:06;;;;;;;1.33;0.40;;;;;;;12.89;100.00;98811.28;5054934;28;20025;-86
2023/10/29 03:08:35;;;;;;;1.80;0.40;;;;;;;12.95;100.00;98796.56;5052417;28;20049;-86
2023/10/29 03:11:04;;;;;;;1.25;0.80;;;;;;;13.01;100.00;98816.41;5037254;28;20029;-85
2023/10/29 03:13:30;;;;;;;1.55;0.55;;;;;;;13.03;100.00;98799.78;5054994;28;20029;-86
2023/10/29 03:15:58;;;;;;;1.93;0.50;;;;;;;13.07;100.00;98800.84;5047998;28;20456;-85
2023/10/29 03:18:33;;;;;;;3.25;0.50;;;;;;;13.13;100.00;98802.44;5037193;28;20021;-86
2023/10/29 03:21:02;;;;;;;1.83;0.50;;;;;;;13.16;100.00;98810.84;5055127;28;20036;-85
2023/10/29 03:23:27;;;;;;;2.80;0.50;;;;;;;13.27;100.00;98816.22;5051807;28;20037;-86
2023/10/29 03:25:55;;;;;;;3.28;0.40;;;;;;;13.24;100.00;98811.34;5055006;28;20481;-85
2023/10/29 03:28:29;;;;;;;2.07;0.40;;;;;;;13.18;100.00;98826.09;5033823;28;20036;-86
2023/10/29 03:30:55;;;;;;;2.17;0.50;;;;;;;12.74;100.00;98803.19;5046857;28;20036;-86
2023/10/29 03:33:20;;;;;;;2.63;0.57;;;;;;;12.45;100.00;98823.72;5017251;28;20037;-86
2023/10/29 03:35:46;;;;;;;1.27;0.40;;;;;;;12.37;100.00;98834.34;5053831;28;20390;-86
2023/10/29 03:38:11;;;;;;;2.07;0.50;;;;;;;12.27;100.00;98837.91;5048792;28;20060;-85
2023/10/29 03:40:44;;;;;;;2.43;0.60;;;;;;;12.14;100.00;98808.59;5020189;28;20075;-89
2023/10/29 03:43:09;;;;;;;2.05;0.40;;;;;;;12.15;100.00;98827.34;5032564;28;20117;-85
2023/10/29 03:45:38;;;;;;;1.80;0.50;;;;;;;11.96;100.00;98820.84;5054540;28;20111;-86
2023/10/29 03:48:03;;;;;;;1.75;0.60;;;;;;;11.97;100.00;98812.41;5036567;28;20118;-87
2023/10/29 03:50:29;;;;;;;1.20;0.50;;;;;;;11.96;100.00;98809.97;5036638;28;20033;-86
2023/10/29 03:52:54;;;;;;;2.37;0.50;;;;;;;11.96;100.00;98804.53;5036826;28;20028;-86
2023/10/29 03:55:20;;;;;;;1.13;0.40;;;;;;;11.88;100.00;98812.13;5053910;28;20028;-86
2023/10/29 03:57:45;;;;;;;1.27;0.40;;;;;;;12.02;100.00;98838.78;5036660;28;20476;-86
2023/10/29 04:00:14;;;;;;;3.05;0.47;;;;;;;12.13;100.00;98831.41;5049238;28;20279;-86
2023/10/29 04:02:39;;;;;;;1.88;0.40;;;;;;;12.22;100.00;98830.59;5035759;28;20032;-85
2023/10/29 04:05:05;;;;;;;1.87;0.60;;;;;;;12.25;100.00;98802.03;5054002;28;20082;-86
2023/10/29 04:07:31;;;;;;;3.47;0.60;;;;;;;12.39;100.00;98822.09;5035859;28;20049;-86
2023/10/29 04:09:58;;;;;;;3.40;0.50;;;;;;;12.56;100.00;98820.94;5046657;28;20112;-86
2023/10/29 04:12:26;;;;;;;1.50;0.45;;;;;;;12.79;100.00;98814.88;5035997;28;20041;-86
2023/10/29 04:14:51;;;;;;;1.50;0.37;;;;;;;12.76;100.00;98818.16;5035601;28;20477;-86
2023/10/29 04:17:17;;;;;;;1.30;0.40;;;;;;;12.80;100.00;98826.59;5019372;28;20079;-86
2023/10/29 04:19:42;;;;;;;1.93;0.47;;;;;;;12.85;100.00;98842.06;5035810;28;20079;-86
2023/10/29 04:22:08;;;;;;;2.57;0.77;;;;;;;12.85;100.00;98837.44;5031520;28;20033;-86
2023/10/29 04:24:33;;;;;;;3.17;0.60;;;;;;;12.81;100.00;98837.19;5035720;28;20025;-87
2023/10/29 04:27:01;;;;;;;1.23;0.50;;;;;;;12.75;100.00;98845.63;5054155;28;20043;-86
2023/10/29 04:29:27;;;;;;;3.67;0.65;;;;;;;12.67;100.00;98840.75;5036204;28;20052;-87
2023/10/29 04:31:52;;;;;;;1.70;0.50;;;;;;;12.60;100.00;98832.91;5035928;28;20500;-86
2023/10/29 04:34:18;;;;;;;3.60;0.40;;;;;;;12.53;100.00;98830.47;5036344;28;20037;-86
2023/10/29 04:36:51;;;;;;;3.20;0.50;;;;;;;12.34;100.00;98832.19;5036146;28;20065;-86
2023/10/29 04:39:17;;;;;;;1.63;0.57;;;;;;;12.38;100.00;98825.09;5020695;28;20280;-86
2023/10/29 04:41:43;;;;;;;1.63;0.45;;;;;;;12.49;100.00;98847.63;5053438;28;20405;-86
2023/10/29 04:44:09;;;;;;;4.13;0.70;;;;;;;12.61;100.00;98840.00;5052232;28;20036;-86
2023/10/29 04:46:34;;;;;;;2.87;0.50;;;;;;;12.69;100.00;98836.69;5036047;28;20119;-86
2023/10/29 04:48:59;;;;;;;3.77;0.90;;;;;;;12.73;100.00;98840.47;5046218;28;20172;-86
2023/10/29 04:51:26;;;;;;;5.90;0.70;;;;;;;12.84;100.00;98838.50;5035534;28;20394;-86
2023/10/29 04:53:52;;;;;;;5.72;0.60;;;;;;;12.88;100.00;98842.31;5045438;28;20028;-86
2023/10/29 04:56:18;;;;;;;2.57;0.47;;;;;;;12.88;100.00;98817.00;5035549;28;20028;-86
2023/10/29 04:58:46;;;;;;;3.58;0.60;;;;;;;12.81;100.00;98848.06;5035500;28;20095;-86
2023/10/29 05:01:13;;;;;;;6.07;0.60;;;;;;;12.57;100.00;98838.91;5035843;28;20104;-86
2023/10/29 05:03:39;;;;;;;4.57;0.52;;;;;;;12.35;100.00;98831.91;5035998;28;20029;-86
2023/10/29 05:06:05;;;;;;;6.55;0.68;;;;;;;12.25;100.00;98843.63;5035554;28;20060;-86
2023/10/29 05:08:33;;;;;;;2.92;0.68;;;;;;;12.24;100.00;98842.00;5034740;28;20068;-86
2023/10/29 05:11:01;;;;;;;3.17;0.60;;;;;;;12.20;100.00;98867.28;5035485;28;20041;-86
2023/10/29 05:13:26;;;;;;;5.13;0.80;;;;;;;12.18;100.00;98861.31;5035437;28;20033;-86
2023/10/29 05:15:52;;;;;;;2.20;0.50;;;;;;;12.19;100.00;98882.78;5057710;28;20385;-86
2023/10/29 05:18:23;;;;;;;13.07;1.00;;;;;;;12.17;100.00;98884.97;5057261;28;20029;-87
2023/10/29 05:20:49;;;;;;;5.03;0.80;;;;;;;11.84;100.00;98889.84;5039854;28;20075;-86
2023/10/29 05:23:16;;;;;;;3.57;0.90;;;;;;;11.67;100.00;98911.84;5038965;28;20029;-86
2023/10/29 05:25:44;;;;;;;4.80;0.95;;;;;;;11.48;100.00;98899.88;5039970;28;20047;-86
2023/10/29 05:28:10;;;;;;;8.20;0.88;;;;;;;11.33;100.00;98909.59;5039883;28;20076;-85
2023/10/29 05:30:35;;;;;;;3.17;0.60;;;;;;;11.16;100.00;98873.72;5022677;28;20412;-85
2023/10/29 05:33:01;;;;;;;2.10;0.40;;;;;;;11.00;100.00;98879.13;5039120;28;20039;-86
2023/10/29 05:35:27;;;;;;;7.88;0.60;;;;;;;10.86;100.00;98895.06;5039633;28;20040;-86
2023/10/29 05:37:53;;;;;;;2.33;0.40;;;;;;;10.66;100.00;98890.38;5056157;28;20032;-86
2023/10/29 05:40:18;;;;;;;5.43;0.80;;;;;;;10.62;100.00;98891.16;5057133;28;20040;-86
2023/10/29 05:42:46;;;;;;;4.70;0.50;;;;;;;10.52;100.00;98911.69;5056566;28;20029;-86
2023/10/29 05:45:11;;;;;;;1.95;0.40;;;;;;;10.55;100.00;98934.78;5039143;28;20025;-85
2023/10/29 05:47:36;;;;;;;4.80;0.90;;;;;;;10.50;100.00;98937.47;5038847;28;20503;-85
2023/10/29 05:50:05;;;;;;;2.97;0.40;;;;;;;10.42;100.00;98916.25;5057424;28;20271;-85
2023/10/29 05:52:31;;;;;;;3.85;0.70;;;;;;;10.37;100.00;98935.22;5055725;28;20143;-85
2023/10/29 05:54:56;;;;;;;2.85;0.50;;;;;;;10.33;100.00;98932.16;5022070;28;20104;-85
2023/10/29 05:57:22;;;;;;;5.00;0.77;;;;;;;10.33;100.00;98930.31;5022145;28;20388;-86
2023/10/29 05:59:48;;;;;;;2.70;0.80;;;;;;;10.38;100.00;98947.66;5056587;28;20025;-85
2023/10/29 06:02:14;;;;;;;11.15;1.10;;;;;;;10.41;100.00;98953.41;5055513;28;20033;-85
2023/10/29 06:04:40;;;;;;;9.90;1.20;;;;;;;10.47;100.00;98984.09;5038337;28;20029;-85
2023/10/29 06:07:10;;;;;;;7.63;0.70;;;;;;;10.42;100.00;98965.06;5039167;28;20025;-85
2023/10/29 06:09:36;;;;;;;5.78;0.70;;;;;;;10.42;100.00;98965.88;5038793;28;20025;-85
2023/10/29 06:12:01;;;;;;;3.77;0.67;;;;;;;10.44;100.00;98973.75;5049148;28;20522;-85
2023/10/29 06:14:27;;;;;;;8.77;1.03;;;;;;;10.39;100.00;98982.66;5038073;28;20483;-85
2023/10/29 06:16:56;;;;;;;6.65;0.85;;;;;;;10.42;100.00;98995.69;5021735;28;20057;-84
2023/10/29 06:19:27;;;;;;;8.40;1.27;;;;;;;10.37;100.00;98994.84;5052013;28;20025;-84
2023/10/29 06:21:53;;;;;;;6.82;1.30;;;;;;;10.38;100.00;99001.88;5048540;28;20040;-86
2023/10/29 06:24:18;;;;;;;5.13;0.60;;;;;;;10.33;100.00;99000.81;5056226;28;20044;-85
2023/10/29 06:26:46;;;;;;;8.63;1.27;;;;;;;10.33;100.00;98998.09;5029993;28;20127;-85
2023/10/29 06:33:25;;;;;;;6.57;0.90;;;;;;;10.26;100.00;99005.59;5055283;28;20045;-86
2023/10/29 06:42:47;;;;;;;12.80;1.35;;;;;;;10.22;100.00;99023.44;5055554;28;20139;-88
2023/10/29 06:45:14;;;;;;;9.50;0.97;;;;;;;10.25;100.00;99027.53;5038310;28;20037;-84
2023/10/29 06:47:39;;;;;;;7.43;1.40;;;;;;;10.30;100.00;99024.84;5022284;28;20067;-85
2023/10/29 06:50:05;;;;;;;11.20;1.13;;;;;;;10.29;100.00;99061.16;5038726;28;20033;-86
2023/10/29 06:52:31;;;;;;;9.05;0.80;;;;;;;10.33;100.00;99041.47;5037343;28;20744;-86
2023/10/29 06:54:56;;;;;;;5.05;0.90;;;;;;;10.31;100.00;99042.75;5055343;28;20032;-86
2023/10/29 06:57:29;;;;;;;6.47;0.65;;;;;;;10.29;100.00;99032.16;5037375;28;20481;-85
2023/10/29 06:59:56;;;;;;;7.68;0.75;;;;;;;10.27;100.00;99033.50;5037322;28;20025;-86
2023/10/29 07:02:21;;;;;;;7.93;1.00;;;;;;;10.27;100.00;99066.03;5055209;28;20025;-84
2023/10/29 07:04:47;;;;;;;6.65;0.77;;;;;;;10.24;100.00;99056.50;5046536;28;20036;-85
2023/10/29 07:07:15;;;;;;;9.00;1.23;;;;;;;10.22;100.00;99050.53;5054865;28;20021;-85
2023/10/29 08:02:00;;;;;;;10.43;1.00;;;;;;;11.08;100.00;99126.66;5053027;28;20052;-85
2023/10/29 08:18:06;;;;;;;11.52;0.90;;;;;;;11.64;100.00;99154.13;5053102;28;20067;-86
2023/10/29 08:23:55;;;;;;;11.80;1.83;;;;;;;11.76;100.00;99170.22;5054026;28;20545;-85
2023/10/29 09:00:38;;;;;;;7.70;1.10;;;;;;;12.39;100.00;99216.47;5052363;28;20086;-86
2023/10/29 09:03:03;;;;;;;11.85;0.90;;;;;;;12.54;100.00;99248.31;5035143;28;20029;-88
2023/10/29 09:05:29;;;;;;;7.77;1.10;;;;;;;12.56;100.00;99229.84;5035230;28;20040;-86
2023/10/29 09:07:54;;;;;;;9.83;1.53;;;;;;;12.67;100.00;99244.28;5034765;28;20397;-86
2023/10/29 09:10:22;;;;;;;8.27;1.10;;;;;;;12.82;100.00;99240.78;5053408;28;20333;-87
2023/10/29 09:12:52;;;;;;;11.93;1.23;;;;;;;12.85;100.00;99242.16;5019139;28;20029;-87
2023/10/29 09:15:18;;;;;;;6.40;0.90;;;;;;;12.85;100.00;99245.69;5019018;28;20049;-87
2023/10/29 09:17:49;;;;;;;9.32;0.90;;;;;;;12.73;100.00;99251.38;5053504;28;20119;-87
2023/10/29 09:20:15;;;;;;;5.30;0.98;;;;;;;12.70;100.00;99265.50;5052206;28;20033;-87
2023/10/29 09:22:40;;;;;;;9.77;1.20;;;;;;;12.64;100.00;99261.16;5035603;28;20040;-87
2023/10/29 09:25:08;;;;;;;8.33;1.07;;;;;;;12.60;100.00;99249.97;5054516;28;20033;-87
2023/10/29 09:27:37;;;;;;;9.48;1.02;;;;;;;12.62;100.00;99255.97;5053647;28;20033;-87
2023/10/29 09:30:03;;;;;;;7.30;1.15;;;;;;;12.76;100.00;99269.06;5035582;28;20090;-88
2023/10/29 09:32:34;;;;;;;6.85;1.10;;;;;;;12.84;100.00;99249.47;5036222;28;20540;-87
2023/10/29 09:35:07;;;;;;;8.10;1.00;;;;;;;12.92;100.00;99253.59;5036422;28;20066;-87
2023/10/29 09:37:34;;;;;;;6.27;0.90;;;;;;;13.08;100.00;99257.97;5035770;28;20083;-87
2023/10/29 09:40:04;;;;;;;11.90;1.77;;;;;;;13.15;100.00;99246.78;5035252;28;20060;-87
2023/10/29 09:42:38;;;;;;;9.75;0.68;;;;;;;13.10;100.00;99263.13;5053104;28;20029;-87
2023/10/29 09:45:09;;;;;;;6.63;0.93;;;;;;;13.13;100.00;99248.97;5035439;28;20516;-88
2023/10/29 09:47:36;;;;;;;7.90;1.17;;;;;;;13.21;100.00;99259.31;5035535;28;20040;-87
2023/10/29 09:50:02;;;;;;;5.27;0.90;;;;;;;13.35;100.00;99256.91;5052993;28;20036;-87
2023/10/29 09:52:32;;;;;;;5.90;0.88;;;;;;;13.42;100.00;99257.47;5035220;28;20033;-87
2023/10/29 09:55:04;;;;;;;13.07;1.40;;;;;;;13.47;100.00;99249.28;5034895;28;20033;-88
2023/10/29 09:57:33;;;;;;;10.40;1.23;;;;;;;13.64;100.00;99265.34;5034679;28;20039;-89
2023/10/29 10:00:02;;;;;;;8.27;1.05;;;;;;;13.67;100.00;99236.72;5019924;28;20151;-89
2023/10/29 10:02:28;;;;;;;6.10;1.15;;;;;;;13.77;100.00;99228.50;5038152;28;20094;-89
2023/10/29 10:05:02;;;;;;;11.07;0.70;;;;;;;13.79;98.97;99231.78;5056578;28;20420;-89
2023/10/29 10:07:47;;;;;;;8.38;1.50;;;;;;;13.75;99.27;99224.44;5038387;28;20029;-87
2023/10/29 10:10:16;;;;;;;7.28;0.80;;;;;;;13.75;100.00;99236.16;5038217;28;20099;-86
2023/10/29 10:13:18;;;;;;;7.40;0.88;;;;;;;13.78;100.00;99243.78;5030913;28;20119;-86
2023/10/29 10:15:44;;;;;;;6.55;1.00;;;;;;;13.66;100.00;99237.81;5038668;28;20056;-86
2023/10/29 10:18:11;;;;;;;8.03;1.00;;;;;;;13.59;99.95;99218.22;5038389;28;20033;-87
2023/10/29 10:20:36;;;;;;;14.30;1.25;;;;;;;13.56;100.00;99218.75;5038507;28;20057;-87
2023/10/29 10:23:11;;;;;;;5.67;0.90;;;;;;;13.62;100.00;99236.72;5021554;28;20170;-87
2023/10/29 10:25:46;;;;;;;10.80;1.00;;;;;;;13.68;100.00;99225.56;5039301;28;20051;-86
2023/10/29 10:28:12;;;;;;;7.05;1.17;;;;;;;13.75;100.00;99214.34;5038055;28;20025;-86
2023/10/29 10:30:50;;;;;;;7.60;1.33;;;;;;;13.89;100.00;99222.75;5038937;28;20043;-87
2023/10/29 10:33:22;;;;;;;6.75;1.23;;;;;;;14.09;100.00;99226.53;5056527;28;20117;-87
2023/10/29 10:35:51;;;;;;;8.73;1.50;;;;;;;14.29;99.54;99228.34;5056165;28;20028;-87
2023/10/29 10:38:25;;;;;;;10.88;1.33;;;;;;;14.46;99.67;99236.19;5037708;28;20067;-86
2023/10/29 10:41:00;;;;;;;11.43;1.70;;;;;;;14.60;97.45;99250.03;5055884;28;20052;-87
2023/10/29 10:43:27;;;;;;;10.07;1.25;;;;;;;14.52;97.30;99257.69;5037423;28;20055;-91
2023/10/29 10:45:57;;;;;;;6.32;1.15;;;;;;;14.43;97.28;99266.78;5037795;28;20033;-87
2023/10/29 10:48:43;;;;;;;5.90;1.20;;;;;;;14.29;98.14;99263.81;5056516;28;20073;-87
2023/10/29 10:51:13;;;;;;;7.18;1.27;;;;;;;14.16;98.14;99273.41;5037774;28;20056;-87
2023/10/29 10:53:42;;;;;;;6.90;1.20;;;;;;;14.06;99.92;99281.63;5053749;28;20116;-88
2023/10/29 10:56:12;;;;;;;8.57;0.90;;;;;;;13.95;100.00;99273.47;5055842;28;20032;-87
2023/10/29 10:58:45;;;;;;;6.53;0.90;;;;;;;13.76;100.00;99251.44;5037918;28;20029;-87
2023/10/29 11:01:14;;;;;;;8.50;1.10;;;;;;;13.68;100.00;99257.44;5037913;28;20029;-87
2023/10/29 11:06:49;;;;;;;6.78;1.50;;;;;;;13.62;100.00;99267.50;5022822;28;20116;-87
2023/10/29 11:13:26;;;;;;;6.03;1.48;;;;;;;13.47;100.00;99254.72;5053715;28;20182;-87
2023/10/29 11:15:51;;;;;;;5.17;1.00;;;;;;;13.38;100.00;99239.22;5036963;28;20466;-87
2023/10/29 11:18:32;;;;;;;4.82;0.90;;;;;;;13.44;100.00;99232.66;5020811;28;20029;-87
2023/10/29 11:21:03;;;;;;;9.13;1.40;;;;;;;13.43;100.00;99231.03;5036895;28;20119;-87
2023/10/29 11:23:38;;;;;;;9.10;1.17;;;;;;;13.37;100.00;99223.97;5038080;28;20103;-88
2023/10/29 11:26:20;;;;;;;5.63;1.10;;;;;;;13.40;100.00;99221.50;5021007;28;20059;-87
2023/10/29 11:28:55;;;;;;;4.40;0.70;;;;;;;13.37;100.00;99213.88;5054899;28;20028;-88
2023/10/29 11:31:24;;;;;;;8.65;1.00;;;;;;;13.37;100.00;99202.97;5022786;28;20033;-87
2023/10/29 11:34:14;;;;;;;6.20;1.27;;;;;;;13.48;100.00;99199.16;5037531;28;20029;-88
2023/10/29 11:36:43;;;;;;;8.10;1.20;;;;;;;13.58;100.00;99206.50;5037206;28;20445;-87
2023/10/29 11:39:22;;;;;;;10.32;1.02;;;;;;;13.64;100.00;99199.09;5054592;28;20033;-88
2023/10/29 11:41:55;;;;;;;8.65;1.00;;;;;;;13.79;100.00;99179.16;5037451;28;20037;-87
2023/10/29 11:44:23;;;;;;;7.63;1.15;;;;;;;14.04;100.00;99172.84;5037290;28;20116;-87
2023/10/29 11:47:03;;;;;;;9.23;1.07;;;;;;;14.49;100.00;99167.41;5035921;28;20082;-87
2023/10/29 11:49:33;;;;;;;8.02;1.33;;;;;;;14.80;96.45;99154.38;5037084;28;20037;-88
2023/10/29 11:52:02;;;;;;;9.30;1.30;;;;;;;15.74;95.35;99149.69;5036385;28;20036;-88
2023/10/29 11:54:28;;;;;;;7.55;1.30;;;;;;;15.95;89.79;99147.56;5036316;28;20028;-89
2023/10/29 11:56:57;;;;;;;12.48;1.80;;;;;;;15.57;92.63;99155.59;5036778;28;20044;-88
2023/10/29 11:59:31;;;;;;;7.53;1.47;;;;;;;15.34;93.66;99149.00;5054461;28;20025;-88
2023/10/29 12:01:59;;;;;;;10.45;1.60;;;;;;;15.17;93.83;99150.25;5037003;28;20527;-86
2023/10/29 12:04:46;;;;;;;6.30;1.00;;;;;;;15.05;96.64;99145.16;5053962;28;20033;-86
2023/10/29 12:26:04;;;;;;;6.22;1.20;;;;;;;14.37;98.96;99152.19;5032013;28;20046;-86
2023/10/29 12:42:03;;;;;;;11.52;1.48;;;;;;;14.21;98.66;99165.09;4992329;28;20097;-87
2023/10/29 12:44:31;;;;;;;9.20;1.10;;;;;;;14.26;97.11;99163.44;4959707;28;20038;-88
2023/10/29 12:50:24;;;;;;;5.88;1.00;;;;;;;16.69;93.50;99149.00;4992493;28;20529;-87
2023/10/29 13:25:03;;;;;;;7.78;1.17;;;;;;;14.27;98.24;99129.63;4992188;28;20149;-89
2023/10/29 13:27:28;;;;;;;8.48;1.20;;;;;;;13.77;100.00;99133.13;4991978;28;20097;-88
2023/10/29 13:29:58;;;;;;;9.37;1.00;;;;;;;13.04;100.00;99133.53;4991648;28;20030;-88
2023/10/29 13:35:59;;;;;;;9.87;1.20;;;;;;;11.95;100.00;99118.97;5029143;28;20038;-88
2023/10/29 13:45:54;;;;;;;11.80;1.55;;;;;;;11.40;100.00;99129.31;5036775;28;20057;-87
2023/10/29 13:59:18;;;;;;;10.57;1.40;;;;;;;11.47;100.00;99097.31;5036173;28;20405;-86
2023/10/29 14:08:51;;;;;;;9.20;1.55;;;;;;;11.59;100.00;99102.53;5037073;28;20088;-86
2023/10/29 14:11:16;;;;;;;12.85;1.52;;;;;;;11.67;100.00;99096.56;5018732;28;20034;-87
2023/10/29 14:13:43;;;;;;;11.53;1.37;;;;;;;11.72;100.00;99076.75;5002564;28;20492;-86
2023/10/29 17:05:46;;;;;;;3.85;0.60;;;;;;;11.46;100.00;99152.69;5053584;28;20135;-86
2023/10/29 17:08:25;;;;;;;;;;;;;;;;;;;;;
2023/10/29 17:18:51;;;;;;;4.03;0.80;;;;;;;10.84;100.00;99197.56;5057511;28;20043;-90
2023/10/29 17:25:12;;;;;;;2.77;0.70;;;;;;;10.64;100.00;99198.97;4988769;28;20573;-89
2023/10/29 17:32:01;;;;;;;2.25;0.80;;;;;;;10.48;100.00;99197.19;4995832;28;20044;-89
2023/10/29 18:02:49;;;;;;;2.50;0.65;;;;;;;10.77;100.00;99268.28;5056532;28;20037;-88
2023/10/29 18:43:20;;;;;;;1.10;0.40;;;;;;;9.43;100.00;99379.41;5026171;28;20032;-87
2023/10/29 18:45:46;;;;;;;2.03;0.40;;;;;;;9.34;100.00;99395.19;5037973;28;20048;-87
2023/10/29 18:48:12;;;;;;;1.83;0.40;;;;;;;9.36;100.00;99389.53;5021659;28;20115;-88
2023/10/29 19:36:02;;;;;;;3.50;0.55;;;;;;;9.30;100.00;99459.84;5055847;28;20120;-86
2023/10/29 19:52:47;;;;;;;1.35;0.50;;;;;;;9.45;100.00;99486.38;5053708;28;20095;-86
2023/10/29 22:09:41;;;;;;;8.10;1.10;;;;;;;9.66;100.00;99628.41;5058723;28;20481;-86
2023/10/29 22:12:11;;;;;;;9.80;1.10;;;;;;;9.59;100.00;99622.31;5038894;28;20370;-86
2023/10/29 22:14:37;;;;;;;12.15;1.35;;;;;;;9.57;100.00;99618.22;5057008;28;20021;-86
2023/10/29 22:17:03;;;;;;;8.20;0.83;;;;;;;9.56;100.00;99628.19;5022902;28;20029;-86
2023/10/29 22:19:28;;;;;;;6.00;1.20;;;;;;;9.49;100.00;99638.31;5039657;28;20272;-86
2023/10/29 22:22:02;;;;;;;10.07;1.17;;;;;;;9.49;100.00;99641.03;5039538;28;20039;-86
2023/10/29 22:24:28;;;;;;;6.70;1.00;;;;;;;9.40;100.00;99637.06;5057581;28;20110;-86
2023/10/29 22:26:56;;;;;;;8.30;1.02;;;;;;;9.36;100.00;99638.59;5039478;28;20482;-86
2023/10/29 22:29:26;;;;;;;7.50;1.10;;;;;;;9.39;100.00;99630.00;5024243;28;20469;-87
2023/10/29 22:31:57;;;;;;;10.20;0.90;;;;;;;9.45;100.00;99637.19;5038517;28;20029;-86
2023/10/29 22:34:22;;;;;;;7.57;1.20;;;;;;;9.42;100.00;99638.47;5037727;28;20033;-86
2023/10/29 22:36:48;;;;;;;8.30;1.07;;;;;;;9.37;100.00;99622.09;5055764;28;20428;-86